sensor_id;sensor_type;location;lat;lon;timestamp;pressure;altitude;pressure_sealevel;temperature;humidity
46942;BME280;32676;52.630;4.896;2023-04-23T00:01:46;100357.59;;;7.85;85.26
46942;BME280;32676;52.630;4.896;2023-04-23T00:04:13;100340.25;;;7.82;85.19
46942;BME280;32676;52.630;4.896;2023-04-23T00:06:42;100340.28;;;7.81;85.07
46942;BME280;32676;52.630;4.896;2023-04-23T00:09:08;100333.34;;;7.80;85.04
46942;BME280;32676;52.630;4.896;2023-04-23T00:11:36;100342.00;;;7.82;85.08
46942;BME280;32676;52.630;4.896;2023-04-23T00:14:03;100340.28;;;7.81;85.09
46942;BME280;32676;52.630;4.896;2023-04-23T00:16:29;100317.75;;;7.77;85.22
46942;BME280;32676;52.630;4.896;2023-04-23T00:18:56;100309.06;;;7.75;85.13
46942;BME280;32676;52.630;4.896;2023-04-23T00:21:22;100296.16;;;7.70;85.10
46942;BME280;32676;52.630;4.896;2023-04-23T00:23:49;100287.53;;;7.66;84.98
46942;BME280;32676;52.630;4.896;2023-04-23T00:26:15;100266.69;;;7.63;84.95
46942;BME280;32676;52.630;4.896;2023-04-23T00:28:43;100260.66;;;7.61;85.02
46942;BME280;32676;52.630;4.896;2023-04-23T00:31:10;100261.53;;;7.60;85.00
46942;BME280;32676;52.630;4.896;2023-04-23T00:33:36;100255.50;;;7.58;84.96
46942;BME280;32676;52.630;4.896;2023-04-23T00:36:02;100246.84;;;7.56;84.98
46942;BME280;32676;52.630;4.896;2023-04-23T00:38:29;100239.94;;;7.55;85.16
46942;BME280;32676;52.630;4.896;2023-04-23T00:40:55;100240.81;;;7.54;85.09
46942;BME280;32676;52.630;4.896;2023-04-23T00:43:21;100226.94;;;7.52;85.23
46942;BME280;32676;52.630;4.896;2023-04-23T00:45:49;100225.22;;;7.51;85.21
46942;BME280;32676;52.630;4.896;2023-04-23T00:48:16;100243.44;;;7.54;85.35
46942;BME280;32676;52.630;4.896;2023-04-23T00:50:42;100231.28;;;7.53;85.51
46942;BME280;32676;52.630;4.896;2023-04-23T00:53:09;100215.69;;;7.50;85.50
46942;BME280;32676;52.630;4.896;2023-04-23T00:55:35;100217.47;;;7.48;85.48
46942;BME280;32676;52.630;4.896;2023-04-23T00:58:01;100209.69;;;7.46;85.47
46942;BME280;32676;52.630;4.896;2023-04-23T01:00:28;100189.81;;;7.41;85.42
46942;BME280;32676;52.630;4.896;2023-04-23T01:02:56;100197.63;;;7.42;85.53
46942;BME280;32676;52.630;4.896;2023-04-23T01:05:23;100186.28;;;7.42;85.66
46942;BME280;32676;52.630;4.896;2023-04-23T01:07:50;100168.97;;;7.38;85.85
46942;BME280;32676;52.630;4.896;2023-04-23T01:10:16;100171.63;;;7.36;85.92
46942;BME280;32676;52.630;4.896;2023-04-23T01:12:43;100167.25;;;7.37;85.96
46942;BME280;32676;52.630;4.896;2023-04-23T01:15:09;100169.06;;;7.35;85.97
46942;BME280;32676;52.630;4.896;2023-04-23T01:17:36;100164.72;;;7.35;86.04
46942;BME280;32676;52.630;4.896;2023-04-23T01:20:04;100170.75;;;7.37;86.12
46942;BME280;32676;52.630;4.896;2023-04-23T01:22:34;100174.22;;;7.38;86.24
46942;BME280;32676;52.630;4.896;2023-04-23T01:25:00;100173.31;;;7.39;86.50
46942;BME280;32676;52.630;4.896;2023-04-23T01:27:28;100179.41;;;7.39;86.62
46942;BME280;32676;52.630;4.896;2023-04-23T01:29:54;100165.56;;;7.36;86.59
46942;BME280;32676;52.630;4.896;2023-04-23T01:32:21;100148.28;;;7.32;86.54
46942;BME280;32676;52.630;4.896;2023-04-23T01:34:48;100148.28;;;7.32;86.45
46942;BME280;32676;52.630;4.896;2023-04-23T01:37:17;100162.16;;;7.34;86.54
46942;BME280;32676;52.630;4.896;2023-04-23T01:39:45;100169.03;;;7.36;86.56
46942;BME280;32676;52.630;4.896;2023-04-23T01:42:12;100168.13;;;7.37;86.69
46942;BME280;32676;52.630;4.896;2023-04-23T01:44:38;100194.13;;;7.42;86.91
46942;BME280;32676;52.630;4.896;2023-04-23T01:47:04;100205.38;;;7.44;87.13
46942;BME280;32676;52.630;4.896;2023-04-23T01:49:31;100231.38;;;7.50;87.27
46942;BME280;32676;52.630;4.896;2023-04-23T01:51:57;100238.25;;;7.53;87.55
46942;BME280;32676;52.630;4.896;2023-04-23T01:54:23;100260.72;;;7.58;87.63
46942;BME280;32676;52.630;4.896;2023-04-23T01:56:51;100283.31;;;7.62;87.73
46942;BME280;32676;52.630;4.896;2023-04-23T01:59:19;100299.69;;;7.67;87.92
46942;BME280;32676;52.630;4.896;2023-04-23T02:01:45;100312.69;;;7.71;88.06
46942;BME280;32676;52.630;4.896;2023-04-23T02:04:12;100318.75;;;7.71;88.20
46942;BME280;32676;52.630;4.896;2023-04-23T02:06:39;100326.56;;;7.73;88.38
46942;BME280;32676;52.630;4.896;2023-04-23T02:09:06;100352.56;;;7.79;88.35
46942;BME280;32676;52.630;4.896;2023-04-23T02:11:32;100356.00;;;7.81;88.47
46942;BME280;32676;52.630;4.896;2023-04-23T02:14:00;100362.91;;;7.82;88.54
46942;BME280;32676;52.630;4.896;2023-04-23T02:16:26;100380.31;;;7.84;88.52
46942;BME280;32676;52.630;4.896;2023-04-23T02:18:53;100388.03;;;7.87;88.51
46942;BME280;32676;52.630;4.896;2023-04-23T02:21:20;100401.91;;;7.91;88.51
46942;BME280;32676;52.630;4.896;2023-04-23T02:23:46;100413.19;;;7.93;88.54
46942;BME280;32676;52.630;4.896;2023-04-23T02:26:13;100432.22;;;7.98;88.82
46942;BME280;32676;52.630;4.896;2023-04-23T02:28:39;100453.06;;;8.01;88.86
46942;BME280;32676;52.630;4.896;2023-04-23T02:31:07;100460.84;;;8.04;88.89
46942;BME280;32676;52.630;4.896;2023-04-23T02:33:33;100477.28;;;8.10;88.92
46942;BME280;32676;52.630;4.896;2023-04-23T02:36:00;100498.13;;;8.13;89.13
46942;BME280;32676;52.630;4.896;2023-04-23T02:38:26;100511.94;;;8.18;89.16
46942;BME280;32676;52.630;4.896;2023-04-23T02:40:52;100511.09;;;8.17;89.19
46942;BME280;32676;52.630;4.896;2023-04-23T02:43:18;100517.16;;;8.18;89.26
46942;BME280;32676;52.630;4.896;2023-04-23T02:45:45;100528.41;;;8.21;89.25
46942;BME280;32676;52.630;4.896;2023-04-23T02:48:12;100543.16;;;8.24;89.25
46942;BME280;32676;52.630;4.896;2023-04-23T02:50:39;100553.56;;;8.27;89.38
46942;BME280;32676;52.630;4.896;2023-04-23T02:53:05;100557.09;;;8.26;89.30
46942;BME280;32676;52.630;4.896;2023-04-23T02:55:32;100577.84;;;8.32;89.39
46942;BME280;32676;52.630;4.896;2023-04-23T02:57:58;100589.16;;;8.34;89.33
46942;BME280;32676;52.630;4.896;2023-04-23T03:00:25;100605.63;;;8.38;89.36
46942;BME280;32676;52.630;4.896;2023-04-23T03:02:51;100611.69;;;8.40;89.57
46942;BME280;32676;52.630;4.896;2023-04-23T03:05:19;100624.72;;;8.41;89.36
46942;BME280;32676;52.630;4.896;2023-04-23T03:07:45;100636.03;;;8.45;89.50
46942;BME280;32676;52.630;4.896;2023-04-23T03:10:11;100641.22;;;8.47;89.45
46942;BME280;32676;52.630;4.896;2023-04-23T03:12:38;100644.69;;;8.47;89.52
46942;BME280;32676;52.630;4.896;2023-04-23T03:15:05;100647.28;;;8.49;89.48
46942;BME280;32676;52.630;4.896;2023-04-23T03:17:31;100669.84;;;8.53;89.56
46942;BME280;32676;52.630;4.896;2023-04-23T03:19:58;100687.22;;;8.57;89.58
46942;BME280;32676;52.630;4.896;2023-04-23T03:22:26;100688.94;;;8.58;89.70
46942;BME280;32676;52.630;4.896;2023-04-23T03:24:52;100686.31;;;8.58;89.76
46942;BME280;32676;52.630;4.896;2023-04-23T03:27:18;100698.47;;;8.60;89.65
46942;BME280;32676;52.630;4.896;2023-04-23T03:29:45;100702.00;;;8.59;89.66
46942;BME280;32676;52.630;4.896;2023-04-23T03:32:11;100703.72;;;8.60;89.65
46942;BME280;32676;52.630;4.896;2023-04-23T03:34:37;100702.84;;;8.60;89.74
46942;BME280;32676;52.630;4.896;2023-04-23T03:37:03;100697.59;;;8.60;89.55
46942;BME280;32676;52.630;4.896;2023-04-23T03:39:31;100700.22;;;8.60;89.54
46942;BME280;32676;52.630;4.896;2023-04-23T03:41:57;100692.47;;;8.57;89.40
46942;BME280;32676;52.630;4.896;2023-04-23T03:44:24;100694.16;;;8.58;89.23
46942;BME280;32676;52.630;4.896;2023-04-23T03:46:50;100702.00;;;8.59;89.22
46942;BME280;32676;52.630;4.896;2023-04-23T03:49:17;100687.22;;;8.57;89.16
46942;BME280;32676;52.630;4.896;2023-04-23T03:51:43;100676.81;;;8.54;88.94
46942;BME280;32676;52.630;4.896;2023-04-23T03:54:09;100680.31;;;8.53;88.92
46942;BME280;32676;52.630;4.896;2023-04-23T03:56:37;100680.28;;;8.54;88.79
46942;BME280;32676;52.630;4.896;2023-04-23T03:59:03;100672.47;;;8.53;88.77
46942;BME280;32676;52.630;4.896;2023-04-23T04:01:30;100659.47;;;8.50;88.66
46942;BME280;32676;52.630;4.896;2023-04-23T04:03:57;100657.75;;;8.49;88.39
46942;BME280;32676;52.630;4.896;2023-04-23T04:06:23;100649.06;;;8.47;88.63
46942;BME280;32676;52.630;4.896;2023-04-23T04:08:50;100633.44;;;8.43;88.51
46942;BME280;32676;52.630;4.896;2023-04-23T04:11:16;100628.28;;;8.40;88.50
46942;BME280;32676;52.630;4.896;2023-04-23T04:13:44;100616.06;;;8.39;88.40
46942;BME280;32676;52.630;4.896;2023-04-23T04:16:10;100612.63;;;8.37;88.42
46942;BME280;32676;52.630;4.896;2023-04-23T04:18:36;100606.56;;;8.37;88.35
46942;BME280;32676;52.630;4.896;2023-04-23T04:21:03;100613.47;;;8.38;88.44
46942;BME280;32676;52.630;4.896;2023-04-23T04:23:30;100616.06;;;8.39;88.42
46942;BME280;32676;52.630;4.896;2023-04-23T04:25:57;100618.69;;;8.39;88.47
46942;BME280;32676;52.630;4.896;2023-04-23T04:28:23;100619.56;;;8.38;88.44
46942;BME280;32676;52.630;4.896;2023-04-23T04:30:52;100607.41;;;8.37;88.43
46942;BME280;32676;52.630;4.896;2023-04-23T04:33:21;100620.44;;;8.39;88.43
46942;BME280;32676;52.630;4.896;2023-04-23T04:35:49;100629.13;;;8.41;88.48
46942;BME280;32676;52.630;4.896;2023-04-23T04:38:16;100631.75;;;8.41;88.58
46942;BME280;32676;52.630;4.896;2023-04-23T04:40:42;100641.25;;;8.45;88.49
46942;BME280;32676;52.630;4.896;2023-04-23T04:43:08;100656.91;;;8.48;88.63
46942;BME280;32676;52.630;4.896;2023-04-23T04:45:35;100671.66;;;8.51;88.74
46942;BME280;32676;52.630;4.896;2023-04-23T04:48:02;100684.66;;;8.55;88.61
46942;BME280;32676;52.630;4.896;2023-04-23T04:50:29;100701.13;;;8.59;88.63
46942;BME280;32676;52.630;4.896;2023-04-23T04:52:55;100720.25;;;8.62;88.62
46942;BME280;32676;52.630;4.896;2023-04-23T04:55:22;100721.09;;;8.63;88.50
46942;BME280;32676;52.630;4.896;2023-04-23T04:57:48;100734.97;;;8.67;88.47
46942;BME280;32676;52.630;4.896;2023-04-23T05:00:19;100746.31;;;8.67;88.50
46942;BME280;32676;52.630;4.896;2023-04-23T05:02:46;100753.19;;;8.71;88.52
46942;BME280;32676;52.630;4.896;2023-04-23T05:05:14;100774.06;;;8.74;88.39
46942;BME280;32676;52.630;4.896;2023-04-23T05:07:40;100784.47;;;8.77;88.71
46942;BME280;32676;52.630;4.896;2023-04-23T05:10:07;100800.97;;;8.81;88.50
46942;BME280;32676;52.630;4.896;2023-04-23T05:12:33;100817.50;;;8.84;88.67
46942;BME280;32676;52.630;4.896;2023-04-23T05:15:01;100827.88;;;8.88;88.61
46942;BME280;32676;52.630;4.896;2023-04-23T05:17:28;100840.91;;;8.91;88.48
46942;BME280;32676;52.630;4.896;2023-04-23T05:19:54;100857.41;;;8.94;88.74
46942;BME280;32676;52.630;4.896;2023-04-23T05:22:22;100873.03;;;8.99;88.82
46942;BME280;32676;52.630;4.896;2023-04-23T05:24:48;100892.13;;;9.04;88.78
46942;BME280;32676;52.630;4.896;2023-04-23T05:27:15;100907.75;;;9.07;88.79
46942;BME280;32676;52.630;4.896;2023-04-23T05:29:41;100935.53;;;9.14;88.82
46942;BME280;32676;52.630;4.896;2023-04-23T05:32:07;100954.66;;;9.19;88.62
46942;BME280;32676;52.630;4.896;2023-04-23T05:34:34;100958.16;;;9.18;88.78
46942;BME280;32676;52.630;4.896;2023-04-23T05:37:00;100965.97;;;9.21;88.75
46942;BME280;32676;52.630;4.896;2023-04-23T05:39:28;100971.16;;;9.23;88.68
46942;BME280;32676;52.630;4.896;2023-04-23T05:41:54;100970.31;;;9.22;88.65
46942;BME280;32676;52.630;4.896;2023-04-23T05:44:20;100989.47;;;9.26;88.60
46942;BME280;32676;52.630;4.896;2023-04-23T05:46:46;101007.69;;;9.31;88.49
46942;BME280;32676;52.630;4.896;2023-04-23T05:49:13;101015.50;;;9.34;88.55
46942;BME280;32676;52.630;4.896;2023-04-23T05:51:39;101034.66;;;9.36;88.45
46942;BME280;32676;52.630;4.896;2023-04-23T05:54:06;101052.03;;;9.40;88.40
46942;BME280;32676;52.630;4.896;2023-04-23T05:56:33;101069.47;;;9.44;88.45
46942;BME280;32676;52.630;4.896;2023-04-23T05:59:00;101079.84;;;9.47;88.42
46942;BME280;32676;52.630;4.896;2023-04-23T06:01:26;101084.19;;;9.50;88.24
46942;BME280;32676;52.630;4.896;2023-04-23T06:03:52;101097.25;;;9.51;88.16
46942;BME280;32676;52.630;4.896;2023-04-23T06:06:19;101118.97;;;9.56;88.23
46942;BME280;32676;52.630;4.896;2023-04-23T06:08:45;101163.38;;;9.66;88.12
46942;BME280;32676;52.630;4.896;2023-04-23T06:11:11;101205.09;;;9.78;88.31
46942;BME280;32676;52.630;4.896;2023-04-23T06:13:39;101239.97;;;9.83;88.32
46942;BME280;32676;52.630;4.896;2023-04-23T06:16:07;101273.88;;;9.92;88.39
46942;BME280;32676;52.630;4.896;2023-04-23T06:18:33;101279.94;;;9.94;88.01
46942;BME280;32676;52.630;4.896;2023-04-23T06:21:00;101283.41;;;9.96;87.89
46942;BME280;32676;52.630;4.896;2023-04-23T06:23:28;101299.97;;;9.98;87.72
46942;BME280;32676;52.630;4.896;2023-04-23T06:25:54;101332.25;;;10.04;87.55
46942;BME280;32676;52.630;4.896;2023-04-23T06:28:21;101360.06;;;10.14;87.32
46942;BME280;32676;52.630;4.896;2023-04-23T06:30:48;101380.91;;;10.20;87.40
46942;BME280;32676;52.630;4.896;2023-04-23T06:33:15;101427.13;;;10.29;87.37
46942;BME280;32676;52.630;4.896;2023-04-23T06:35:41;101462.88;;;10.37;87.41
46942;BME280;32676;52.630;4.896;2023-04-23T06:38:07;101496.00;;;10.46;87.00
46942;BME280;32676;52.630;4.896;2023-04-23T06:40:33;101529.06;;;10.55;87.06
46942;BME280;32676;52.630;4.896;2023-04-23T06:43:00;101546.53;;;10.59;86.57
46942;BME280;32676;52.630;4.896;2023-04-23T06:45:28;101590.19;;;10.66;86.43
46942;BME280;32676;52.630;4.896;2023-04-23T06:47:57;101628.50;;;10.76;86.23
46942;BME280;32676;52.630;4.896;2023-04-23T06:50:23;101665.13;;;10.86;85.93
46942;BME280;32676;52.630;4.896;2023-04-23T06:52:49;101701.75;;;10.95;85.62
46942;BME280;32676;52.630;4.896;2023-04-23T06:55:16;101750.63;;;11.07;85.69
46942;BME280;32676;52.630;4.896;2023-04-23T06:57:43;101796.03;;;11.17;85.29
46942;BME280;32676;52.630;4.896;2023-04-23T07:00:10;101833.53;;;11.28;85.44
46942;BME280;32676;52.630;4.896;2023-04-23T07:02:37;101867.63;;;11.34;84.71
46942;BME280;32676;52.630;4.896;2023-04-23T07:05:04;101913.03;;;11.45;84.67
46942;BME280;32676;52.630;4.896;2023-04-23T07:07:31;101961.97;;;11.56;84.22
46942;BME280;32676;52.630;4.896;2023-04-23T07:10:00;101999.56;;;11.64;84.27
46942;BME280;32676;52.630;4.896;2023-04-23T07:12:27;102030.13;;;11.72;83.99
46942;BME280;32676;52.630;4.896;2023-04-23T07:14:54;102070.31;;;11.82;83.98
46942;BME280;32676;52.630;4.896;2023-04-23T07:17:20;102103.56;;;11.89;83.34
46942;BME280;32676;52.630;4.896;2023-04-23T07:19:47;102151.75;;;11.99;82.85
46942;BME280;32676;52.630;4.896;2023-04-23T07:22:14;102185.81;;;12.10;82.72
46942;BME280;32676;52.630;4.896;2023-04-23T07:24:41;102223.44;;;12.18;81.99
46942;BME280;32676;52.630;4.896;2023-04-23T07:27:07;102266.34;;;12.26;81.51
46942;BME280;32676;52.630;4.896;2023-04-23T07:29:34;102297.84;;;12.36;81.45
46942;BME280;32676;52.630;4.896;2023-04-23T07:32:00;102334.59;;;12.45;80.97
46942;BME280;32676;52.630;4.896;2023-04-23T07:34:26;102373.16;;;12.52;80.94
46942;BME280;32676;52.630;4.896;2023-04-23T07:36:53;102408.16;;;12.60;80.53
46942;BME280;32676;52.630;4.896;2023-04-23T07:39:21;102429.19;;;12.66;80.03
46942;BME280;32676;52.630;4.896;2023-04-23T07:41:48;102465.13;;;12.74;79.72
46942;BME280;32676;52.630;4.896;2023-04-23T07:44:14;102493.16;;;12.82;79.41
46942;BME280;32676;52.630;4.896;2023-04-23T07:46:40;102522.03;;;12.90;79.65
46942;BME280;32676;52.630;4.896;2023-04-23T07:49:07;102557.09;;;12.98;79.45
46942;BME280;32676;52.630;4.896;2023-04-23T07:51:33;102586.91;;;13.06;78.72
46942;BME280;32676;52.630;4.896;2023-04-23T07:54:00;102623.75;;;13.13;77.81
46942;BME280;32676;52.630;4.896;2023-04-23T07:56:27;102651.81;;;13.20;77.88
46942;BME280;32676;52.630;4.896;2023-04-23T07:58:56;102695.66;;;13.30;77.65
46942;BME280;32676;52.630;4.896;2023-04-23T08:01:22;102718.50;;;13.37;77.92
46942;BME280;32676;52.630;4.896;2023-04-23T08:03:49;102743.03;;;13.44;77.54
46942;BME280;32676;52.630;4.896;2023-04-23T08:06:15;102771.13;;;13.50;76.90
46942;BME280;32676;52.630;4.896;2023-04-23T08:08:42;102799.19;;;13.57;77.00
46942;BME280;32676;52.630;4.896;2023-04-23T08:11:08;102834.34;;;13.65;76.98
46942;BME280;32676;52.630;4.896;2023-04-23T08:13:36;102857.16;;;13.69;76.36
46942;BME280;32676;52.630;4.896;2023-04-23T08:16:02;102887.03;;;13.77;76.13
46942;BME280;32676;52.630;4.896;2023-04-23T08:18:29;102908.94;;;13.84;75.99
46942;BME280;32676;52.630;4.896;2023-04-23T08:20:55;102949.38;;;13.92;75.81
46942;BME280;32676;52.630;4.896;2023-04-23T08:23:22;102960.78;;;13.96;75.67
46942;BME280;32676;52.630;4.896;2023-04-23T08:25:49;102995.94;;;14.04;74.97
46942;BME280;32676;52.630;4.896;2023-04-23T08:28:16;103013.53;;;14.08;74.81
46942;BME280;32676;52.630;4.896;2023-04-23T08:30:44;103051.31;;;14.16;75.05
46942;BME280;32676;52.630;4.896;2023-04-23T08:33:11;103073.28;;;14.21;74.80
46942;BME280;32676;52.630;4.896;2023-04-23T08:35:37;103089.97;;;14.28;74.94
46942;BME280;32676;52.630;4.896;2023-04-23T08:38:03;103106.69;;;14.32;74.55
46942;BME280;32676;52.630;4.896;2023-04-23T08:40:30;103131.28;;;14.37;74.39
46942;BME280;32676;52.630;4.896;2023-04-23T08:42:57;103177.03;;;14.48;74.41
46942;BME280;32676;52.630;4.896;2023-04-23T08:45:26;103196.34;;;14.53;74.12
46942;BME280;32676;52.630;4.896;2023-04-23T08:47:57;103217.50;;;14.59;73.72
46942;BME280;32676;52.630;4.896;2023-04-23T08:50:24;103256.25;;;14.68;73.63
46942;BME280;32676;52.630;4.896;2023-04-23T08:52:51;103272.06;;;14.73;73.21
46942;BME280;32676;52.630;4.896;2023-04-23T08:55:18;103303.78;;;14.79;73.29
46942;BME280;32676;52.630;4.896;2023-04-23T08:57:45;103322.22;;;14.84;73.06
46942;BME280;32676;52.630;4.896;2023-04-23T09:00:12;103328.38;;;14.87;72.42
46942;BME280;32676;52.630;4.896;2023-04-23T09:02:39;103312.50;;;14.84;72.27
46942;BME280;32676;52.630;4.896;2023-04-23T09:05:08;103338.94;;;14.90;72.09
46942;BME280;32676;52.630;4.896;2023-04-23T09:07:34;103381.22;;;15.00;72.02
46942;BME280;32676;52.630;4.896;2023-04-23T09:10:01;103411.13;;;15.08;71.94
46942;BME280;32676;52.630;4.896;2023-04-23T09:12:27;103444.59;;;15.15;71.20
46942;BME280;32676;52.630;4.896;2023-04-23T09:14:54;103450.75;;;15.17;70.97
46942;BME280;32676;52.630;4.896;2023-04-23T09:17:21;103509.78;;;15.31;70.56
46942;BME280;32676;52.630;4.896;2023-04-23T09:19:48;103530.06;;;15.37;70.50
46942;BME280;32676;52.630;4.896;2023-04-23T09:22:17;103552.09;;;15.44;70.42
46942;BME280;32676;52.630;4.896;2023-04-23T09:25:02;103542.41;;;15.40;70.19
46942;BME280;32676;52.630;4.896;2023-04-23T09:27:29;103569.72;;;15.48;70.22
46942;BME280;32676;52.630;4.896;2023-04-23T09:29:56;103634.06;;;15.62;70.65
46942;BME280;32676;52.630;4.896;2023-04-23T09:32:29;103678.22;;;15.76;69.96
46942;BME280;32676;52.630;4.896;2023-04-23T09:34:56;103724.94;;;15.87;69.25
46942;BME280;32676;52.630;4.896;2023-04-23T09:37:25;103754.94;;;15.94;69.34
46942;BME280;32676;52.630;4.896;2023-04-23T09:39:51;103773.47;;;15.99;69.17
46942;BME280;32676;52.630;4.896;2023-04-23T09:42:21;103791.09;;;16.04;68.74
46942;BME280;32676;52.630;4.896;2023-04-23T09:44:49;103840.56;;;16.15;68.35
46942;BME280;32676;52.630;4.896;2023-04-23T09:47:20;103873.22;;;16.23;67.84
46942;BME280;32676;52.630;4.896;2023-04-23T09:49:47;103912.06;;;16.33;67.56
46942;BME280;32676;52.630;4.896;2023-04-23T09:52:14;103935.00;;;16.40;67.08
46942;BME280;32676;52.630;4.896;2023-04-23T09:54:41;103965.06;;;16.47;66.59
46942;BME280;32676;52.630;4.896;2023-04-23T09:57:10;103935.00;;;16.40;66.24
46942;BME280;32676;52.630;4.896;2023-04-23T09:59:36;103903.22;;;16.34;66.62
46942;BME280;32676;52.630;4.896;2023-04-23T10:02:03;103885.53;;;16.33;66.22
46942;BME280;32676;52.630;4.896;2023-04-23T10:04:30;103927.03;;;16.42;66.14
46942;BME280;32676;52.630;4.896;2023-04-23T10:06:56;103996.84;;;16.58;66.37
46942;BME280;32676;52.630;4.896;2023-04-23T10:09:23;104052.50;;;16.73;66.22
46942;BME280;32676;52.630;4.896;2023-04-23T10:11:51;104110.88;;;16.85;65.09
46942;BME280;32676;52.630;4.896;2023-04-23T10:14:18;104163.03;;;16.99;65.17
46942;BME280;32676;52.630;4.896;2023-04-23T10:16:45;104224.09;;;17.11;64.64
46942;BME280;32676;52.630;4.896;2023-04-23T10:19:12;104235.59;;;17.16;63.86
46942;BME280;32676;52.630;4.896;2023-04-23T10:21:39;104228.50;;;17.15;63.82
46942;BME280;32676;52.630;4.896;2023-04-23T10:24:06;104265.66;;;17.24;63.37
46942;BME280;32676;52.630;4.896;2023-04-23T10:26:34;104259.44;;;17.25;62.79
46942;BME280;32676;52.630;4.896;2023-04-23T10:29:04;104274.47;;;17.30;62.70
46942;BME280;32676;52.630;4.896;2023-04-23T10:31:34;104290.44;;;17.33;61.99
46942;BME280;32676;52.630;4.896;2023-04-23T10:34:01;104261.19;;;17.31;61.80
46942;BME280;32676;52.630;4.896;2023-04-23T10:36:30;104278.94;;;17.32;62.11
46942;BME280;32676;52.630;4.896;2023-04-23T10:38:57;104276.25;;;17.34;62.06
46942;BME280;32676;52.630;4.896;2023-04-23T10:41:28;104272.69;;;17.35;61.46
46942;BME280;32676;52.630;4.896;2023-04-23T10:43:58;104240.84;;;17.29;61.45
46942;BME280;32676;52.630;4.896;2023-04-23T10:46:29;104264.72;;;17.36;61.71
46942;BME280;32676;52.630;4.896;2023-04-23T10:49:05;104291.25;;;17.42;62.58
46942;BME280;32676;52.630;4.896;2023-04-23T10:51:32;104282.41;;;17.43;62.03
46942;BME280;32676;52.630;4.896;2023-04-23T10:53:58;104256.72;;;17.38;60.94
46942;BME280;32676;52.630;4.896;2023-04-23T10:56:25;104254.94;;;17.37;59.97
46942;BME280;32676;52.630;4.896;2023-04-23T10:58:52;104290.38;;;17.45;60.68
46942;BME280;32676;52.630;4.896;2023-04-23T11:01:19;104306.28;;;17.51;60.54
46942;BME280;32676;52.630;4.896;2023-04-23T11:03:47;104277.94;;;17.47;59.81
46942;BME280;32676;52.630;4.896;2023-04-23T11:06:14;104250.50;;;17.42;59.99
46942;BME280;32676;52.630;4.896;2023-04-23T11:08:50;104201.81;;;17.34;59.66
46942;BME280;32676;52.630;4.896;2023-04-23T11:11:18;104212.41;;;17.37;59.28
46942;BME280;32676;52.630;4.896;2023-04-23T11:13:50;104196.50;;;17.34;59.15
46942;BME280;32676;52.630;4.896;2023-04-23T11:16:19;104198.25;;;17.36;59.10
46942;BME280;32676;52.630;4.896;2023-04-23T11:18:57;104217.72;;;17.40;58.72
46942;BME280;32676;52.630;4.896;2023-04-23T11:24:05;104179.66;;;17.35;59.05
46942;BME280;32676;52.630;4.896;2023-04-23T11:26:32;104169.91;;;17.34;59.14
46942;BME280;32676;52.630;4.896;2023-04-23T11:28:59;104170.78;;;17.36;59.34
46942;BME280;32676;52.630;4.896;2023-04-23T11:31:26;104145.13;;;17.30;59.42
46942;BME280;32676;52.630;4.896;2023-04-23T11:33:52;104120.34;;;17.26;59.54
46942;BME280;32676;52.630;4.896;2023-04-23T11:36:20;104130.06;;;17.29;59.70
46942;BME280;32676;52.630;4.896;2023-04-23T11:38:47;104152.19;;;17.36;60.36
46942;BME280;32676;52.630;4.896;2023-04-23T11:41:14;104183.13;;;17.44;60.44
46942;BME280;32676;52.630;4.896;2023-04-23T11:43:40;104217.66;;;17.52;59.37
46942;BME280;32676;52.630;4.896;2023-04-23T11:46:07;104230.88;;;17.57;59.25
46942;BME280;32676;52.630;4.896;2023-04-23T11:48:33;104254.81;;;17.63;59.35
46942;BME280;32676;52.630;4.896;2023-04-23T11:51:00;104281.34;;;17.71;59.18
46942;BME280;32676;52.630;4.896;2023-04-23T11:53:28;104281.34;;;17.71;58.10
46942;BME280;32676;52.630;4.896;2023-04-23T11:55:54;104277.75;;;17.72;57.90
46942;BME280;32676;52.630;4.896;2023-04-23T11:58:20;104298.16;;;17.77;58.50
46942;BME280;32676;52.630;4.896;2023-04-23T12:00:47;104299.03;;;17.78;58.75
46942;BME280;32676;52.630;4.896;2023-04-23T12:03:14;104299.00;;;17.81;58.93
46942;BME280;32676;52.630;4.896;2023-04-23T12:05:42;104289.25;;;17.78;59.00
46942;BME280;32676;52.630;4.896;2023-04-23T12:08:10;104262.66;;;17.75;59.55
46942;BME280;32676;52.630;4.896;2023-04-23T12:10:48;104238.78;;;17.71;58.74
46942;BME280;32676;52.630;4.896;2023-04-23T12:13:16;104226.34;;;17.70;58.60
46942;BME280;32676;52.630;4.896;2023-04-23T12:15:43;104199.84;;;17.60;59.07
46942;BME280;32676;52.630;4.896;2023-04-23T12:18:09;104192.69;;;17.65;58.67
46942;BME280;32676;52.630;4.896;2023-04-23T12:20:36;104231.66;;;17.73;58.17
46942;BME280;32676;52.630;4.896;2023-04-23T12:23:04;104270.59;;;17.83;57.78
46942;BME280;32676;52.630;4.896;2023-04-23T12:25:30;104293.66;;;17.89;57.87
46942;BME280;32676;52.630;4.896;2023-04-23T12:27:59;104306.03;;;17.94;58.30
46942;BME280;32676;52.630;4.896;2023-04-23T12:30:27;104316.66;;;17.97;58.03
46942;BME280;32676;52.630;4.896;2023-04-23T12:32:57;104327.25;;;18.00;57.20
46942;BME280;32676;52.630;4.896;2023-04-23T12:35:35;104336.09;;;18.04;56.92
46942;BME280;32676;52.630;4.896;2023-04-23T12:38:03;104353.78;;;18.10;56.77
46942;BME280;32676;52.630;4.896;2023-04-23T12:40:29;104377.72;;;18.16;56.46
46942;BME280;32676;52.630;4.896;2023-04-23T12:42:56;104397.22;;;18.19;57.08
46942;BME280;32676;52.630;4.896;2023-04-23T12:45:23;104414.00;;;18.26;57.83
46942;BME280;32676;52.630;4.896;2023-04-23T12:47:50;104395.41;;;18.23;57.11
46942;BME280;32676;52.630;4.896;2023-04-23T12:50:16;104367.03;;;18.19;57.09
46942;BME280;32676;52.630;4.896;2023-04-23T12:52:42;104328.09;;;18.10;57.71
46942;BME280;32676;52.630;4.896;2023-04-23T12:55:09;104289.97;;;18.03;58.28
46942;BME280;32676;52.630;4.896;2023-04-23T12:57:35;104206.75;;;17.86;58.38